Time;durP1;ratioP1;P1;durP2;ratioP2;P2;SDS_P1;SDS_P2;PMS_P1;PMS_P2;Temp;Humidity;BMP_temperature;BMP_pressure;BME280_temperature;BME280_humidity;BME280_pressure;Samples;Min_cycle;Max_cycle;Signal;HPM_P1;HPM_P2
2021/08/09 00:01:52;;;;;;;1.33;0.90;;;;;;;;;;5076288;28;20035;-79
2021/08/09 00:04:18;;;;;;;0.80;0.80;;;;;;;;;;5075116;28;20021;-79
2021/08/09 00:06:44;;;;;;;0.93;0.75;;;;;;;;;;5082150;28;20171;-79
2021/08/09 00:09:10;;;;;;;1.52;0.85;;;;;;;;;;5087435;28;20035;-79
2021/08/09 00:11:36;;;;;;;1.58;1.02;;;;;;;;;;5096798;28;20091;-80
2021/08/09 00:14:02;;;;;;;0.65;0.60;;;;;;;;;;5077311;28;20085;-80
2021/08/09 00:16:28;;;;;;;1.92;1.02;;;;;;;;;;5075550;28;20024;-80
2021/08/09 00:18:55;;;;;;;1.42;0.80;;;;;;;;;;5076349;28;20116;-81
2021/08/09 00:21:21;;;;;;;1.30;0.68;;;;;;;;;;5077973;28;20025;-83
2021/08/09 00:23:47;;;;;;;3.92;1.08;;;;;;;;;;5077498;28;20111;-80
2021/08/09 00:26:14;;;;;;;0.75;0.75;;;;;;;;;;5077133;28;20039;-79
2021/08/09 00:28:40;;;;;;;2.20;1.30;;;;;;;;;;5079606;28;20024;-80
2021/08/09 00:31:06;;;;;;;1.35;0.98;;;;;;;;;;5077517;28;20127;-80
2021/08/09 00:33:32;;;;;;;0.70;0.63;;;;;;;;;;5077478;28;20032;-80
2021/08/09 00:35:58;;;;;;;1.65;1.10;;;;;;;;;;5076271;28;20058;-80
2021/08/09 00:38:24;;;;;;;1.38;0.88;;;;;;;;;;5090500;28;20021;-78
2021/08/09 00:40:50;;;;;;;0.60;0.60;;;;;;;;;;5075711;28;20024;-79
2021/08/09 00:43:16;;;;;;;0.93;0.90;;;;;;;;;;5076415;28;20032;-80
2021/08/09 00:45:43;;;;;;;1.23;0.65;;;;;;;;;;5076695;28;20024;-79
2021/08/09 00:48:09;;;;;;;0.70;0.70;;;;;;;;;;5077067;28;20095;-80
2021/08/09 00:50:35;;;;;;;0.80;0.70;;;;;;;;;;5079415;28;20028;-79
2021/08/09 00:53:01;;;;;;;1.13;0.77;;;;;;;;;;5080412;28;20027;-81
2021/08/09 00:55:27;;;;;;;0.60;0.57;;;;;;;;;;5080469;28;20165;-81
2021/08/09 00:57:54;;;;;;;0.90;0.90;;;;;;;;;;5079726;28;20029;-81
2021/08/09 01:00:22;;;;;;;0.70;0.70;;;;;;;;;;5080015;28;20396;-79
2021/08/09 01:02:48;;;;;;;1.02;0.85;;;;;;;;;;5077995;28;20110;-79
2021/08/09 01:05:14;;;;;;;4.35;1.02;;;;;;;;;;5079138;28;20143;-80
2021/08/09 01:08:03;;;;;;;1.60;1.00;;;;;;;;;;5059549;28;20021;-80
2021/08/09 01:10:37;;;;;;;0.70;0.70;;;;;;;;;;5041595;28;20116;-80
2021/08/09 01:13:22;;;;;;;1.00;0.90;;;;;;;;;;5041615;28;20028;-79
2021/08/09 01:15:51;;;;;;;1.15;0.70;;;;;;;;;;5060661;28;20035;-79
2021/08/09 01:18:18;;;;;;;1.63;0.90;;;;;;;;;;5043931;28;20025;-80
2021/08/09 01:20:50;;;;;;;0.57;0.57;;;;;;;;;;5059937;28;20029;-79
2021/08/09 01:23:20;;;;;;;1.13;0.70;;;;;;;;;;5059643;28;20173;-78
2021/08/09 01:26:09;;;;;;;0.85;0.82;;;;;;;;;;5074347;28;20032;-81
2021/08/09 01:28:36;;;;;;;1.77;1.00;;;;;;;;;;5080127;28;20032;-79
2021/08/09 01:31:02;;;;;;;1.20;0.93;;;;;;;;;;5085738;28;20020;-82
2021/08/09 01:33:30;;;;;;;1.10;0.98;;;;;;;;;;5096609;28;20013;-81
2021/08/09 01:35:57;;;;;;;3.50;0.93;;;;;;;;;;5087960;28;20026;-81
2021/08/09 01:38:25;;;;;;;1.55;1.10;;;;;;;;;;5085710;28;20028;-83
2021/08/09 01:40:56;;;;;;;0.90;0.90;;;;;;;;;;5101402;28;20020;-81
2021/08/09 01:43:22;;;;;;;1.10;1.00;;;;;;;;;;5100618;28;20462;-80
2021/08/09 01:45:48;;;;;;;1.30;1.20;;;;;;;;;;5090436;28;20504;-80
2021/08/09 01:48:15;;;;;;;1.35;1.10;;;;;;;;;;5080172;28;20025;-80
2021/08/09 01:50:48;;;;;;;1.95;0.80;;;;;;;;;;5079095;28;20096;-80
2021/08/09 01:53:14;;;;;;;1.73;0.95;;;;;;;;;;5079867;28;20036;-80
2021/08/09 01:55:40;;;;;;;0.90;0.82;;;;;;;;;;5081109;28;20020;-80
2021/08/09 01:58:06;;;;;;;2.20;1.08;;;;;;;;;;5078770;28;20040;-81
2021/08/09 02:00:32;;;;;;;2.05;1.00;;;;;;;;;;5079528;28;20032;-81
2021/08/09 02:02:58;;;;;;;0.70;0.70;;;;;;;;;;5079648;28;20032;-79
2021/08/09 02:05:25;;;;;;;0.85;0.85;;;;;;;;;;5079647;28;20105;-80
2021/08/09 02:07:52;;;;;;;0.40;0.40;;;;;;;;;;5094523;28;20310;-81
2021/08/09 02:10:23;;;;;;;1.20;0.90;;;;;;;;;;5077893;28;20035;-79
2021/08/09 02:13:04;;;;;;;0.77;0.77;;;;;;;;;;5079548;28;20158;-78
2021/08/09 02:15:37;;;;;;;0.73;0.60;;;;;;;;;;5079205;28;20051;-80
2021/08/09 02:18:09;;;;;;;1.15;0.80;;;;;;;;;;5080069;28;20020;-79
2021/08/09 02:20:38;;;;;;;1.20;0.90;;;;;;;;;;5079718;28;20036;-80
2021/08/09 02:23:07;;;;;;;0.57;0.57;;;;;;;;;;5077391;28;20029;-79
2021/08/09 02:25:34;;;;;;;1.23;0.80;;;;;;;;;;5076881;28;20044;-79
2021/08/09 02:28:20;;;;;;;0.85;0.75;;;;;;;;;;5078379;28;20024;-80
2021/08/09 02:30:50;;;;;;;0.93;0.88;;;;;;;;;;5077834;28;20031;-81
2021/08/09 02:33:16;;;;;;;1.23;1.17;;;;;;;;;;5077521;28;20047;-82
2021/08/09 02:35:44;;;;;;;0.73;0.70;;;;;;;;;;5079487;28;20074;-82
2021/08/09 02:38:11;;;;;;;1.05;0.88;;;;;;;;;;5071267;28;20017;-82
2021/08/09 02:40:39;;;;;;;1.10;1.00;;;;;;;;;;5099241;28;20085;-80
2021/08/09 02:43:06;;;;;;;1.67;0.80;;;;;;;;;;5097115;28;20059;-79
2021/08/09 02:45:32;;;;;;;0.98;0.98;;;;;;;;;;5077292;28;20744;-79
2021/08/09 02:47:59;;;;;;;2.92;1.30;;;;;;;;;;5076187;28;20033;-82
2021/08/09 02:50:25;;;;;;;0.80;0.80;;;;;;;;;;5077206;28;20025;-81
2021/08/09 02:52:52;;;;;;;1.23;0.75;;;;;;;;;;5077365;28;20024;-80
2021/08/09 02:55:19;;;;;;;1.33;1.05;;;;;;;;;;5077112;28;20500;-79
2021/08/09 02:57:47;;;;;;;0.88;0.73;;;;;;;;;;5076020;28;20036;-80
2021/08/09 03:00:14;;;;;;;0.90;0.80;;;;;;;;;;5077036;28;20024;-80
2021/08/09 03:02:42;;;;;;;0.95;0.80;;;;;;;;;;5077107;28;20135;-80
2021/08/09 03:05:08;;;;;;;2.63;1.52;;;;;;;;;;5076563;28;20020;-80
2021/08/09 03:07:36;;;;;;;1.10;1.00;;;;;;;;;;5082525;28;20024;-80
2021/08/09 03:10:02;;;;;;;0.95;0.80;;;;;;;;;;5080125;28;20046;-81
2021/08/09 03:12:28;;;;;;;1.10;0.73;;;;;;;;;;5076196;28;20503;-81
2021/08/09 03:14:54;;;;;;;1.63;0.98;;;;;;;;;;5076274;28;20016;-80
2021/08/09 03:17:20;;;;;;;0.47;0.47;;;;;;;;;;5077533;28;20082;-80
2021/08/09 03:19:46;;;;;;;0.70;0.70;;;;;;;;;;5076177;28;20107;-80
2021/08/09 03:22:12;;;;;;;0.70;0.70;;;;;;;;;;5076393;28;20518;-79
2021/08/09 03:24:39;;;;;;;3.17;0.98;;;;;;;;;;5076920;28;20429;-79
2021/08/09 03:27:05;;;;;;;0.55;0.55;;;;;;;;;;5076359;28;20142;-80
2021/08/09 03:29:32;;;;;;;1.33;0.95;;;;;;;;;;5073375;28;20039;-79
2021/08/09 03:31:58;;;;;;;0.50;0.50;;;;;;;;;;5074690;28;20031;-79
2021/08/09 03:34:24;;;;;;;0.77;0.77;;;;;;;;;;5074286;28;20067;-80
2021/08/09 03:36:52;;;;;;;0.75;0.75;;;;;;;;;;5085470;28;20016;-80
2021/08/09 03:39:19;;;;;;;0.88;0.73;;;;;;;;;;5076921;28;20027;-78
2021/08/09 03:41:45;;;;;;;1.67;0.55;;;;;;;;;;5078713;28;20123;-79
2021/08/09 03:44:11;;;;;;;0.85;0.55;;;;;;;;;;5074424;28;20530;-79
2021/08/09 03:46:38;;;;;;;2.53;0.90;;;;;;;;;;5077632;28;20025;-82
2021/08/09 03:49:07;;;;;;;0.75;0.60;;;;;;;;;;5077466;28;20029;-79
2021/08/09 03:51:34;;;;;;;1.00;0.70;;;;;;;;;;5081504;28;20085;-81
2021/08/09 03:54:00;;;;;;;1.25;0.73;;;;;;;;;;5077971;28;20477;-82
2021/08/09 03:56:26;;;;;;;1.13;0.85;;;;;;;;;;5077858;28;20035;-82
2021/08/09 03:58:52;;;;;;;0.98;0.85;;;;;;;;;;5081484;28;20008;-80
2021/08/09 04:01:19;;;;;;;1.08;0.82;;;;;;;;;;5078139;28;20044;-79
2021/08/09 04:03:45;;;;;;;0.50;0.50;;;;;;;;;;5082680;28;20056;-81
2021/08/09 04:06:11;;;;;;;0.70;0.70;;;;;;;;;;5078821;28;20025;-79
2021/08/09 04:08:40;;;;;;;0.95;0.80;;;;;;;;;;5097437;28;20052;-81
2021/08/09 04:11:06;;;;;;;0.60;0.60;;;;;;;;;;5104675;28;20016;-78
2021/08/09 04:13:34;;;;;;;3.33;0.80;;;;;;;;;;5089724;28;20054;-79
2021/08/09 04:16:00;;;;;;;0.70;0.70;;;;;;;;;;5078122;28;20032;-80
2021/08/09 04:18:26;;;;;;;0.70;0.70;;;;;;;;;;5077868;28;20044;-80
2021/08/09 04:20:52;;;;;;;0.70;0.60;;;;;;;;;;5077267;28;20032;-80
2021/08/09 04:23:18;;;;;;;0.50;0.50;;;;;;;;;;5077480;28;20025;-80
2021/08/09 04:25:44;;;;;;;2.25;0.80;;;;;;;;;;5078466;28;20037;-80
2021/08/09 04:28:10;;;;;;;0.80;0.80;;;;;;;;;;5080231;28;20086;-80
2021/08/09 04:30:37;;;;;;;0.75;0.70;;;;;;;;;;5080140;28;20047;-80
2021/08/09 04:33:03;;;;;;;0.70;0.70;;;;;;;;;;5080982;28;20066;-78
2021/08/09 04:35:30;;;;;;;0.75;0.63;;;;;;;;;;5093564;22;20035;-81
2021/08/09 04:37:56;;;;;;;0.57;0.57;;;;;;;;;;5090487;28;20032;-84
2021/08/09 04:40:23;;;;;;;1.83;0.88;;;;;;;;;;5070680;28;20452;-84
2021/08/09 04:42:49;;;;;;;0.90;0.88;;;;;;;;;;5086255;28;20158;-83
2021/08/09 04:45:15;;;;;;;0.95;0.68;;;;;;;;;;5031860;28;20044;-84
2021/08/09 04:47:41;;;;;;;2.88;0.88;;;;;;;;;;5027712;28;20466;-83
2021/08/09 04:50:07;;;;;;;1.40;0.90;;;;;;;;;;5025960;28;20029;-83
2021/08/09 04:52:39;;;;;;;0.90;0.80;;;;;;;;;;5024388;28;20125;-83
2021/08/09 04:55:05;;;;;;;0.75;0.75;;;;;;;;;;5034802;28;20113;-84
2021/08/09 04:57:31;;;;;;;0.85;0.85;;;;;;;;;;5044572;28;20025;-84
2021/08/09 04:59:58;;;;;;;2.03;0.90;;;;;;;;;;5044859;28;20029;-83
2021/08/09 05:02:24;;;;;;;0.70;0.70;;;;;;;;;;5048246;28;20045;-83
2021/08/09 05:04:50;;;;;;;1.38;1.20;;;;;;;;;;5048133;28;20025;-84
2021/08/09 05:07:16;;;;;;;1.27;0.90;;;;;;;;;;5066397;28;20087;-82
2021/08/09 05:09:42;;;;;;;0.80;0.80;;;;;;;;;;5075126;28;20019;-81
2021/08/09 05:12:08;;;;;;;0.85;0.63;;;;;;;;;;5076060;28;20036;-80
2021/08/09 05:14:35;;;;;;;1.48;0.90;;;;;;;;;;5055905;28;20052;-82
2021/08/09 05:17:01;;;;;;;1.10;1.00;;;;;;;;;;5035151;28;20032;-83
2021/08/09 05:19:27;;;;;;;0.85;0.70;;;;;;;;;;5054373;28;20045;-82
2021/08/09 05:21:53;;;;;;;1.10;0.90;;;;;;;;;;5031774;28;20544;-84
2021/08/09 05:24:19;;;;;;;0.70;0.70;;;;;;;;;;5029216;28;20057;-83
2021/08/09 05:26:45;;;;;;;0.50;0.50;;;;;;;;;;5051511;28;20035;-84
2021/08/09 05:29:11;;;;;;;0.90;0.57;;;;;;;;;;5050391;28;20032;-83
2021/08/09 05:31:39;;;;;;;0.70;0.65;;;;;;;;;;5027597;28;20029;-84
2021/08/09 05:34:05;;;;;;;0.60;0.60;;;;;;;;;;5052218;28;20064;-81
2021/08/09 05:36:31;;;;;;;0.82;0.82;;;;;;;;;;5062457;28;20033;-82
2021/08/09 05:38:59;;;;;;;0.93;0.80;;;;;;;;;;5041756;28;20045;-82
2021/08/09 05:41:25;;;;;;;1.75;1.17;;;;;;;;;;5029246;28;20040;-83
2021/08/09 05:43:51;;;;;;;1.17;1.08;;;;;;;;;;5027713;28;20343;-83
2021/08/09 05:46:17;;;;;;;0.73;0.73;;;;;;;;;;5029192;28;20033;-83
2021/08/09 05:48:43;;;;;;;3.28;1.40;;;;;;;;;;5027141;28;20079;-83
2021/08/09 05:51:09;;;;;;;1.48;1.05;;;;;;;;;;5027378;28;20043;-80
2021/08/09 05:53:35;;;;;;;0.80;0.80;;;;;;;;;;5032412;28;20564;-82
2021/08/09 05:56:01;;;;;;;1.10;0.93;;;;;;;;;;5035250;28;20006;-82
2021/08/09 05:58:27;;;;;;;0.73;0.70;;;;;;;;;;5055307;28;20021;-80
2021/08/09 06:00:53;;;;;;;0.88;0.88;;;;;;;;;;5034626;28;20033;-84
2021/08/09 06:03:22;;;;;;;2.42;0.98;;;;;;;;;;5046271;28;20036;-83
2021/08/09 06:05:48;;;;;;;0.95;0.95;;;;;;;;;;5051391;28;20021;-84
2021/08/09 06:08:14;;;;;;;1.15;0.77;;;;;;;;;;5036098;28;20033;-85
2021/08/09 06:10:43;;;;;;;0.85;0.85;;;;;;;;;;5044544;28;20026;-85
2021/08/09 06:13:10;;;;;;;3.80;2.13;;;;;;;;;;5037215;28;20027;-84
2021/08/09 06:15:36;;;;;;;2.13;1.35;;;;;;;;;;5037607;28;20040;-85
2021/08/09 06:18:02;;;;;;;1.30;1.20;;;;;;;;;;5030925;28;20034;-84
2021/08/09 06:20:28;;;;;;;1.63;1.23;;;;;;;;;;5046761;28;20036;-82
2021/08/09 06:22:56;;;;;;;0.90;0.90;;;;;;;;;;5045526;28;20093;-82
2021/08/09 06:25:22;;;;;;;0.80;0.80;;;;;;;;;;5026301;28;20044;-84
2021/08/09 06:27:50;;;;;;;0.85;0.85;;;;;;;;;;5043310;28;20021;-85
2021/08/09 06:30:16;;;;;;;2.13;1.00;;;;;;;;;;5025512;28;20061;-83
2021/08/09 06:32:42;;;;;;;1.75;0.90;;;;;;;;;;5042447;28;20134;-83
2021/08/09 06:35:09;;;;;;;1.15;1.05;;;;;;;;;;5027064;28;20343;-83
2021/08/09 06:37:35;;;;;;;1.10;0.70;;;;;;;;;;5032623;28;20039;-83
2021/08/09 06:40:02;;;;;;;3.05;0.93;;;;;;;;;;5044490;28;20017;-83
2021/08/09 06:45:41;;;;;;;1.67;1.17;;;;;;;;;;5043573;28;20034;-84
2021/08/09 06:48:08;;;;;;;1.30;1.00;;;;;;;;;;5043484;28;20036;-85
2021/08/09 06:50:34;;;;;;;3.17;1.08;;;;;;;;;;5043214;28;20032;-83
2021/08/09 06:53:00;;;;;;;0.82;0.70;;;;;;;;;;5043860;28;20501;-84
2021/08/09 06:55:26;;;;;;;0.80;0.80;;;;;;;;;;5052973;28;20064;-83
2021/08/09 06:57:52;;;;;;;2.65;0.98;;;;;;;;;;5049415;28;20029;-84
2021/08/09 07:00:21;;;;;;;0.90;0.70;;;;;;;;;;5021993;28;20049;-85
2021/08/09 07:02:47;;;;;;;0.60;0.60;;;;;;;;;;5024444;28;20045;-84
2021/08/09 07:05:13;;;;;;;0.77;0.70;;;;;;;;;;5037540;28;20025;-84
2021/08/09 07:07:41;;;;;;;1.27;0.70;;;;;;;;;;5040713;28;20130;-84
2021/08/09 07:10:07;;;;;;;2.55;0.95;;;;;;;;;;5051708;28;20022;-82
2021/08/09 07:12:33;;;;;;;2.60;1.48;;;;;;;;;;5033060;28;20025;-82
2021/08/09 07:14:59;;;;;;;2.47;1.10;;;;;;;;;;5031443;28;20148;-84
2021/08/09 07:17:25;;;;;;;1.92;0.90;;;;;;;;;;5043398;28;20040;-83
2021/08/09 07:19:51;;;;;;;1.20;0.93;;;;;;;;;;5042865;28;20045;-83
2021/08/09 07:22:18;;;;;;;2.20;1.00;;;;;;;;;;5053434;28;20087;-81
2021/08/09 07:24:44;;;;;;;2.03;0.98;;;;;;;;;;5054111;28;20033;-84
2021/08/09 07:27:12;;;;;;;1.70;1.25;;;;;;;;;;5037321;28;20009;-83
2021/08/09 07:29:38;;;;;;;3.50;1.20;;;;;;;;;;5054274;28;20089;-81
2021/08/09 07:32:04;;;;;;;1.25;1.15;;;;;;;;;;5048363;28;20037;-84
2021/08/09 07:34:30;;;;;;;2.60;1.40;;;;;;;;;;5046955;28;20028;-83
2021/08/09 07:36:56;;;;;;;5.55;1.17;;;;;;;;;;5037299;28;20026;-83
2021/08/09 07:39:23;;;;;;;1.85;1.10;;;;;;;;;;5064388;28;20044;-84
2021/08/09 07:41:49;;;;;;;2.95;1.10;;;;;;;;;;5026387;28;20037;-83
2021/08/09 07:44:15;;;;;;;1.45;1.20;;;;;;;;;;5026321;28;20025;-82
2021/08/09 07:46:41;;;;;;;1.15;0.98;;;;;;;;;;5025299;28;20041;-82
2021/08/09 07:49:07;;;;;;;4.85;1.27;;;;;;;;;;5043990;28;20063;-82
2021/08/09 07:51:33;;;;;;;3.95;1.00;;;;;;;;;;5025865;28;20036;-83
2021/08/09 07:53:59;;;;;;;1.25;0.82;;;;;;;;;;5032406;28;20009;-83
2021/08/09 07:56:26;;;;;;;3.85;1.20;;;;;;;;;;5037789;28;20049;-81
2021/08/09 07:58:52;;;;;;;1.77;1.05;;;;;;;;;;5033275;28;20067;-82
2021/08/09 08:01:18;;;;;;;3.88;0.90;;;;;;;;;;5044622;28;20056;-83
2021/08/09 08:03:44;;;;;;;3.72;0.90;;;;;;;;;;5026844;28;20025;-85
2021/08/09 08:06:10;;;;;;;2.83;1.00;;;;;;;;;;5049381;28;20053;-81
2021/08/09 08:08:36;;;;;;;3.05;0.88;;;;;;;;;;5034768;28;20025;-84
2021/08/09 08:11:02;;;;;;;1.30;1.20;;;;;;;;;;5036845;28;20053;-85
2021/08/09 08:13:34;;;;;;;3.28;1.20;;;;;;;;;;5040037;28;20449;-84
2021/08/09 08:16:00;;;;;;;2.33;1.08;;;;;;;;;;5024797;28;20052;-83
2021/08/09 08:18:26;;;;;;;3.25;1.38;;;;;;;;;;5023154;28;20036;-82
2021/08/09 08:20:52;;;;;;;2.83;0.88;;;;;;;;;;5023752;28;20036;-82
2021/08/09 08:23:18;;;;;;;4.07;1.05;;;;;;;;;;5025767;28;20032;-83
2021/08/09 08:25:44;;;;;;;2.28;0.95;;;;;;;;;;5024286;28;20062;-84
2021/08/09 08:28:10;;;;;;;2.90;1.23;;;;;;;;;;5024591;28;20036;-84
2021/08/09 08:30:36;;;;;;;3.65;1.10;;;;;;;;;;5026366;28;20061;-84
2021/08/09 08:33:02;;;;;;;0.98;0.80;;;;;;;;;;5023955;28;20500;-83
2021/08/09 08:35:28;;;;;;;1.42;0.80;;;;;;;;;;5047684;28;20039;-83
2021/08/09 08:37:54;;;;;;;1.02;0.80;;;;;;;;;;5054626;28;20020;-83
2021/08/09 08:40:21;;;;;;;1.58;0.82;;;;;;;;;;5043038;28;20408;-84
2021/08/09 08:42:47;;;;;;;3.78;1.10;;;;;;;;;;5050345;28;20025;-83
2021/08/09 08:45:18;;;;;;;2.03;1.23;;;;;;;;;;5023163;28;20033;-84
2021/08/09 08:47:44;;;;;;;4.07;1.38;;;;;;;;;;5050928;28;20038;-82
2021/08/09 08:50:11;;;;;;;3.47;0.85;;;;;;;;;;5053253;28;20021;-82
2021/08/09 08:52:42;;;;;;;1.98;0.82;;;;;;;;;;5036291;28;20030;-81
2021/08/09 08:55:08;;;;;;;2.22;1.08;;;;;;;;;;5035902;28;20030;-83
2021/08/09 08:57:34;;;;;;;4.03;1.00;;;;;;;;;;5036662;28;20033;-83
2021/08/09 09:00:00;;;;;;;3.50;1.45;;;;;;;;;;5037020;28;20064;-81
2021/08/09 09:02:37;;;;;;;2.10;1.13;;;;;;;;;;5055419;28;20051;-82
2021/08/09 09:05:09;;;;;;;2.03;1.23;;;;;;;;;;5039697;28;20082;-83
2021/08/09 09:07:35;;;;;;;2.40;0.82;;;;;;;;;;5037844;28;20026;-82
2021/08/09 09:10:14;;;;;;;2.08;0.90;;;;;;;;;;5022855;28;20045;-84
2021/08/09 09:12:40;;;;;;;2.85;1.10;;;;;;;;;;5047109;28;20048;-84
2021/08/09 09:15:07;;;;;;;7.00;1.20;;;;;;;;;;5047604;28;20076;-83
2021/08/09 09:17:34;;;;;;;3.13;0.98;;;;;;;;;;5049600;28;20022;-85
2021/08/09 09:20:20;;;;;;;1.05;0.65;;;;;;;;;;5030157;28;20131;-83
2021/08/09 09:22:46;;;;;;;2.80;1.00;;;;;;;;;;5031027;28;20026;-83
2021/08/09 09:25:12;;;;;;;3.17;1.33;;;;;;;;;;5048119;28;20021;-82
2021/08/09 09:27:38;;;;;;;3.10;1.10;;;;;;;;;;5042460;28;20027;-84
2021/08/09 09:30:23;;;;;;;2.03;1.00;;;;;;;;;;5045635;28;20386;-84
2021/08/09 09:33:01;;;;;;;2.05;1.17;;;;;;;;;;5043841;28;20576;-84
2021/08/09 09:35:27;;;;;;;3.88;1.17;;;;;;;;;;5024703;28;20037;-85
2021/08/09 09:37:54;;;;;;;2.70;1.05;;;;;;;;;;5032248;28;20025;-83
2021/08/09 09:40:20;;;;;;;4.32;1.73;;;;;;;;;;5045256;28;20211;-82
2021/08/09 09:42:47;;;;;;;2.10;1.23;;;;;;;;;;5043853;28;20455;-83
2021/08/09 09:45:30;;;;;;;1.15;0.90;;;;;;;;;;5030897;28;20030;-84
2021/08/09 09:48:04;;;;;;;2.58;1.10;;;;;;;;;;5026138;28;20018;-82
2021/08/09 09:50:30;;;;;;;2.60;0.98;;;;;;;;;;5026400;28;20049;-84
2021/08/09 09:52:56;;;;;;;3.35;1.10;;;;;;;;;;5023587;28;20160;-82
2021/08/09 09:55:25;;;;;;;1.85;0.80;;;;;;;;;;5034364;28;20032;-83
2021/08/09 09:57:52;;;;;;;2.67;1.30;;;;;;;;;;5045866;28;20025;-81
2021/08/09 10:00:18;;;;;;;4.65;1.10;;;;;;;;;;5051776;28;20061;-83
2021/08/09 10:02:45;;;;;;;2.15;1.10;;;;;;;;;;5044768;28;20056;-83
2021/08/09 10:05:12;;;;;;;3.15;1.02;;;;;;;;;;5033410;28;20029;-84
2021/08/09 10:07:39;;;;;;;3.50;1.30;;;;;;;;;;5043937;28;20056;-83
2021/08/09 10:10:06;;;;;;;1.10;0.90;;;;;;;;;;5023709;28;20022;-83
2021/08/09 10:12:33;;;;;;;3.10;1.30;;;;;;;;;;5025097;28;20017;-84
2021/08/09 10:14:59;;;;;;;4.53;1.23;;;;;;;;;;5042265;28;20033;-83
2021/08/09 10:17:29;;;;;;;2.17;1.20;;;;;;;;;;5043707;28;20081;-82
2021/08/09 10:20:03;;;;;;;2.28;1.02;;;;;;;;;;5035834;28;20021;-83
2021/08/09 10:22:29;;;;;;;1.55;1.45;;;;;;;;;;5026153;28;20029;-84
2021/08/09 10:24:56;;;;;;;1.80;0.93;;;;;;;;;;5051557;28;20084;-83
2021/08/09 10:27:42;;;;;;;0.90;0.90;;;;;;;;;;5046404;28;20022;-85
2021/08/09 10:30:09;;;;;;;1.48;1.00;;;;;;;;;;5051772;28;20014;-83
2021/08/09 10:32:52;;;;;;;0.80;0.80;;;;;;;;;;5050634;28;20085;-83
2021/08/09 10:35:34;;;;;;;3.15;1.20;;;;;;;;;;5071095;22;21338;-81
2021/08/09 10:38:17;;;;;;;1.38;0.98;;;;;;;;;;5088855;28;20021;-82
2021/08/09 10:40:44;;;;;;;2.55;1.20;;;;;;;;;;5084412;28;20317;-83
2021/08/09 10:43:10;;;;;;;2.97;0.95;;;;;;;;;;5103827;28;20026;-83
2021/08/09 10:45:48;;;;;;;4.00;1.10;;;;;;;;;;5086913;28;20020;-82
2021/08/09 10:48:16;;;;;;;1.27;1.10;;;;;;;;;;5065719;28;20049;-83
2021/08/09 10:50:45;;;;;;;1.77;1.00;;;;;;;;;;5062466;28;20025;-82
2021/08/09 10:53:30;;;;;;;0.95;0.90;;;;;;;;;;5062489;28;20099;-82
2021/08/09 10:55:56;;;;;;;2.33;1.23;;;;;;;;;;5044828;28;20129;-82
2021/08/09 10:58:41;;;;;;;1.55;1.30;;;;;;;;;;5061355;28;20032;-81
2021/08/09 11:01:11;;;;;;;4.18;1.20;;;;;;;;;;5063023;28;20024;-83
2021/08/09 11:03:56;;;;;;;1.52;0.90;;;;;;;;;;5061838;28;20033;-82
2021/08/09 11:06:38;;;;;;;2.40;1.20;;;;;;;;;;5073778;28;20043;-83
2021/08/09 11:09:31;;;;;;;1.63;1.02;;;;;;;;;;5087884;28;20054;-80
2021/08/09 11:12:07;;;;;;;1.85;0.80;;;;;;;;;;5076996;28;20364;-83
2021/08/09 11:14:53;;;;;;;1.52;1.00;;;;;;;;;;5082130;28;20047;-83
2021/08/09 11:17:19;;;;;;;1.90;1.08;;;;;;;;;;5074781;28;20017;-83
2021/08/09 11:19:46;;;;;;;2.50;1.00;;;;;;;;;;5061411;28;20061;-83
2021/08/09 11:22:17;;;;;;;1.05;0.98;;;;;;;;;;5061907;28;20029;-83
2021/08/09 11:24:43;;;;;;;2.30;1.20;;;;;;;;;;5063294;28;20042;-80
2021/08/09 11:27:09;;;;;;;2.50;1.35;;;;;;;;;;5076957;28;20027;-79
2021/08/09 11:29:54;;;;;;;1.38;0.95;;;;;;;;;;5092460;28;20491;-81
2021/08/09 11:32:36;;;;;;;1.90;1.10;;;;;;;;;;5081345;28;20434;-82
2021/08/09 11:35:02;;;;;;;5.03;2.00;;;;;;;;;;5082748;28;20020;-82
2021/08/09 11:37:28;;;;;;;1.77;1.10;;;;;;;;;;5090933;28;20031;-82
2021/08/09 11:39:55;;;;;;;4.43;1.00;;;;;;;;;;5095266;28;20122;-83
2021/08/09 11:42:21;;;;;;;2.92;0.93;;;;;;;;;;5103010;28;20326;-82
2021/08/09 11:44:47;;;;;;;2.97;0.95;;;;;;;;;;5102031;28;20020;-83
2021/08/09 11:47:22;;;;;;;2.53;1.00;;;;;;;;;;5102790;28;20100;-82
2021/08/09 11:49:49;;;;;;;1.02;1.02;;;;;;;;;;5065622;28;20032;-83
2021/08/09 11:52:21;;;;;;;1.48;1.00;;;;;;;;;;5083630;28;20024;-82
2021/08/09 11:54:47;;;;;;;2.10;1.00;;;;;;;;;;5065104;28;20024;-84
2021/08/09 11:57:13;;;;;;;1.42;0.95;;;;;;;;;;5084857;28;20024;-83
2021/08/09 11:59:40;;;;;;;2.15;1.02;;;;;;;;;;5068787;28;20021;-81
2021/08/09 12:02:11;;;;;;;2.47;1.17;;;;;;;;;;5045541;28;20532;-83
2021/08/09 12:04:43;;;;;;;1.55;0.95;;;;;;;;;;5062532;28;20025;-82
2021/08/09 12:07:19;;;;;;;2.85;1.20;;;;;;;;;;5085591;28;20060;-82
2021/08/09 12:09:46;;;;;;;3.22;1.33;;;;;;;;;;5071118;28;20509;-81
2021/08/09 12:12:14;;;;;;;1.73;1.02;;;;;;;;;;5061381;28;20056;-83
2021/08/09 12:14:40;;;;;;;1.75;0.93;;;;;;;;;;5061098;28;20017;-81
2021/08/09 12:17:22;;;;;;;1.77;1.20;;;;;;;;;;5043677;28;20028;-81
2021/08/09 12:19:48;;;;;;;1.33;0.80;;;;;;;;;;5060772;28;20025;-82
2021/08/09 12:22:16;;;;;;;1.98;0.80;;;;;;;;;;5060313;28;20386;-82
2021/08/09 12:24:43;;;;;;;1.67;1.20;;;;;;;;;;5061440;28;20051;-82
2021/08/09 12:27:22;;;;;;;1.30;1.00;;;;;;;;;;5063219;28;20021;-83
2021/08/09 12:30:00;;;;;;;2.42;1.00;;;;;;;;;;5051602;28;20086;-82
2021/08/09 12:32:28;;;;;;;1.13;1.02;;;;;;;;;;5063715;28;20068;-82
2021/08/09 12:34:54;;;;;;;1.45;1.15;;;;;;;;;;5081266;28;20020;-81
2021/08/09 12:37:21;;;;;;;1.13;0.93;;;;;;;;;;5071980;28;20088;-82
2021/08/09 12:39:47;;;;;;;1.00;0.90;;;;;;;;;;5079720;28;20028;-79
2021/08/09 12:42:14;;;;;;;2.08;1.20;;;;;;;;;;5070985;28;20029;-81
2021/08/09 12:44:40;;;;;;;3.65;1.00;;;;;;;;;;5062652;28;20044;-82
2021/08/09 12:47:06;;;;;;;1.02;0.90;;;;;;;;;;5047290;28;20280;-82
2021/08/09 12:49:32;;;;;;;1.55;0.95;;;;;;;;;;5048088;28;20209;-83
2021/08/09 12:51:58;;;;;;;1.30;1.00;;;;;;;;;;5067295;28;20309;-82
2021/08/09 12:54:24;;;;;;;1.55;1.02;;;;;;;;;;5084755;28;20373;-83
2021/08/09 12:56:51;;;;;;;1.15;1.05;;;;;;;;;;5084115;28;20040;-83
2021/08/09 12:59:17;;;;;;;1.13;1.02;;;;;;;;;;5084667;28;20081;-81
2021/08/09 13:01:43;;;;;;;1.17;0.93;;;;;;;;;;5052816;28;20056;-81
2021/08/09 13:04:09;;;;;;;1.08;0.93;;;;;;;;;;5065239;28;20028;-81
2021/08/09 13:06:35;;;;;;;1.02;0.90;;;;;;;;;;5079946;28;20045;-83
2021/08/09 13:09:01;;;;;;;2.17;0.82;;;;;;;;;;5077355;28;20020;-83
2021/08/09 13:11:27;;;;;;;1.33;0.90;;;;;;;;;;5075829;28;20400;-80
2021/08/09 13:13:54;;;;;;;0.70;0.70;;;;;;;;;;5065144;28;20565;-82
2021/08/09 13:16:20;;;;;;;0.80;0.80;;;;;;;;;;5083650;28;20016;-83
2021/08/09 13:18:46;;;;;;;0.90;0.90;;;;;;;;;;5065602;28;20032;-83
2021/08/09 13:21:13;;;;;;;1.10;1.00;;;;;;;;;;5064553;28;20035;-83
2021/08/09 13:23:39;;;;;;;1.15;0.90;;;;;;;;;;5064267;28;20028;-85
2021/08/09 13:26:06;;;;;;;1.02;1.00;;;;;;;;;;5082282;28;20107;-82
2021/08/09 13:28:36;;;;;;;1.25;1.13;;;;;;;;;;5082727;28;20025;-83
2021/08/09 13:31:02;;;;;;;1.20;1.10;;;;;;;;;;5082381;28;20030;-81
2021/08/09 13:33:28;;;;;;;1.55;1.20;;;;;;;;;;5084171;28;20063;-83
2021/08/09 13:35:54;;;;;;;1.75;1.23;;;;;;;;;;5058202;28;20073;-83
2021/08/09 13:38:20;;;;;;;1.20;1.10;;;;;;;;;;5094862;28;20024;-82
2021/08/09 13:40:46;;;;;;;1.25;1.15;;;;;;;;;;5084687;28;20020;-82
2021/08/09 13:43:12;;;;;;;1.20;0.98;;;;;;;;;;5052727;28;20037;-82
2021/08/09 13:45:40;;;;;;;1.20;1.10;;;;;;;;;;5063082;28;20025;-83
2021/08/09 13:48:06;;;;;;;1.08;0.98;;;;;;;;;;5062684;28;20017;-83
2021/08/09 13:50:32;;;;;;;1.25;1.10;;;;;;;;;;5062009;28;20428;-81
2021/08/09 13:52:58;;;;;;;1.67;0.90;;;;;;;;;;5072361;28;20039;-81
2021/08/09 13:55:26;;;;;;;1.88;1.50;;;;;;;;;;5084744;28;20025;-83
2021/08/09 13:57:52;;;;;;;1.77;0.93;;;;;;;;;;5082560;28;20123;-80
2021/08/09 14:00:19;;;;;;;2.05;1.20;;;;;;;;;;5075646;28;20036;-81
2021/08/09 14:02:45;;;;;;;1.60;1.05;;;;;;;;;;5093066;28;20055;-81
2021/08/09 14:05:12;;;;;;;0.88;0.88;;;;;;;;;;5077249;28;20030;-82
2021/08/09 14:07:39;;;;;;;2.50;1.50;;;;;;;;;;5099334;28;20031;-80
2021/08/09 14:10:08;;;;;;;3.40;1.30;;;;;;;;;;5077133;28;20069;-81
2021/08/09 14:12:42;;;;;;;4.70;0.98;;;;;;;;;;5075322;28;20036;-81
2021/08/09 14:15:08;;;;;;;0.98;0.90;;;;;;;;;;5093818;28;20077;-80
2021/08/09 14:17:35;;;;;;;1.40;0.95;;;;;;;;;;5095485;28;20052;-78
2021/08/09 14:20:01;;;;;;;0.85;0.85;;;;;;;;;;5080662;28;20040;-80
2021/08/09 14:22:27;;;;;;;1.85;1.05;;;;;;;;;;5098285;28;20036;-79
2021/08/09 14:24:56;;;;;;;1.50;1.00;;;;;;;;;;5080556;28;20024;-80
2021/08/09 14:27:22;;;;;;;1.38;1.20;;;;;;;;;;5068843;28;20017;-83
2021/08/09 14:29:48;;;;;;;2.08;1.20;;;;;;;;;;5067733;28;20029;-82
2021/08/09 14:32:15;;;;;;;1.10;1.10;;;;;;;;;;5057826;28;20045;-80
2021/08/09 14:34:41;;;;;;;1.40;1.17;;;;;;;;;;5091446;28;20052;-79
2021/08/09 14:37:07;;;;;;;2.97;1.30;;;;;;;;;;5088603;28;20031;-80
2021/08/09 14:39:33;;;;;;;1.98;1.30;;;;;;;;;;5087499;28;20028;-81
2021/08/09 14:41:59;;;;;;;1.92;1.17;;;;;;;;;;5118626;28;20012;-79
2021/08/09 14:44:25;;;;;;;1.63;1.08;;;;;;;;;;5101207;28;20085;-79
2021/08/09 14:46:51;;;;;;;2.75;1.45;;;;;;;;;;5060790;28;20036;-78
2021/08/09 14:49:18;;;;;;;1.23;1.02;;;;;;;;;;5078035;28;20073;-77
2021/08/09 14:51:44;;;;;;;1.30;1.20;;;;;;;;;;5060998;28;20044;-78